createdAt,value
2024-03-14T00:00:23.084Z,8.30
2024-03-14T00:02:50.393Z,8.50
2024-03-14T00:05:17.759Z,7.40
2024-03-14T00:07:44.902Z,8.40
2024-03-14T00:10:12.338Z,8.60
2024-03-14T00:12:39.756Z,9.10
2024-03-14T00:15:07.785Z,9.40
2024-03-14T00:17:35.631Z,7.30
2024-03-14T00:20:04.235Z,7.40
2024-03-14T00:22:31.607Z,7.60
2024-03-14T00:24:59.308Z,7.30
2024-03-14T00:27:26.434Z,6.60
2024-03-14T00:29:57.172Z,6.00
2024-03-14T00:32:26.038Z,7.30
2024-03-14T00:34:53.154Z,6.00
2024-03-14T00:37:20.544Z,5.90
2024-03-14T00:39:47.625Z,5.80
2024-03-14T00:42:14.968Z,6.00
2024-03-14T00:44:43.627Z,5.50
2024-03-14T00:47:10.848Z,5.70
2024-03-14T00:49:39.958Z,4.90
2024-03-14T00:52:07.411Z,4.80
2024-03-14T00:54:35.266Z,5.30
2024-03-14T00:57:04.141Z,5.00
2024-03-14T00:59:32.037Z,5.00
2024-03-14T01:01:59.271Z,5.50
2024-03-14T01:04:26.446Z,5.30
2024-03-14T01:06:56.447Z,4.60
2024-03-14T01:09:27.015Z,4.40
2024-03-14T01:11:54.580Z,4.20
2024-03-14T01:14:24.482Z,3.30
2024-03-14T01:16:52.409Z,3.60
2024-03-14T01:19:20.006Z,3.00
2024-03-14T01:21:47.328Z,3.40
2024-03-14T01:24:15.195Z,3.70
2024-03-14T01:26:43.634Z,3.80
2024-03-14T01:29:12.427Z,4.40
2024-03-14T01:31:40.067Z,3.90
2024-03-14T01:34:09.648Z,3.90
2024-03-14T01:41:39.157Z,4.50
2024-03-14T01:44:06.588Z,4.60
2024-03-14T01:46:34.949Z,4.40
2024-03-14T01:49:03.047Z,4.50
2024-03-14T01:51:31.537Z,3.80
2024-03-14T01:53:58.934Z,4.40
2024-03-14T01:56:26.418Z,4.60
2024-03-14T01:58:53.882Z,4.40
2024-03-14T02:01:22.707Z,4.10
2024-03-14T02:03:55.374Z,4.20
2024-03-14T02:06:27.228Z,4.50
2024-03-14T02:08:54.215Z,4.00
2024-03-14T02:11:22.586Z,4.50
2024-03-14T02:13:50.502Z,3.90
2024-03-14T02:16:17.465Z,4.60
2024-03-14T02:18:47.132Z,4.30
2024-03-14T02:21:14.482Z,3.80
2024-03-14T02:23:42.029Z,4.30
2024-03-14T02:26:09.666Z,4.50
2024-03-14T02:28:37.997Z,4.80
2024-03-14T02:31:05.375Z,4.60
2024-03-14T02:33:32.571Z,5.00
2024-03-14T02:35:59.848Z,4.20
2024-03-14T02:38:26.870Z,4.60
2024-03-14T02:40:54.483Z,4.30
2024-03-14T02:43:23.774Z,4.30
2024-03-14T02:45:50.748Z,4.30
2024-03-14T02:48:17.963Z,4.00
2024-03-14T02:50:45.689Z,4.50
2024-03-14T02:53:15.471Z,3.80
2024-03-14T02:58:13.137Z,4.20
2024-03-14T03:00:40.081Z,4.50
2024-03-14T03:03:11.681Z,4.50
2024-03-14T03:05:38.876Z,4.10
2024-03-14T03:08:06.300Z,4.00
2024-03-14T03:10:34.315Z,4.40
2024-03-14T03:13:01.473Z,4.30
2024-03-14T03:15:29.066Z,3.80
2024-03-14T03:17:56.823Z,4.00
2024-03-14T03:20:24.152Z,5.00
2024-03-14T03:23:10.248Z,3.90
2024-03-14T03:25:37.533Z,4.00
2024-03-14T03:28:05.337Z,4.00
2024-03-14T03:30:33.036Z,4.40
2024-03-14T03:33:01.579Z,4.20
2024-03-14T03:35:29.254Z,4.00
2024-03-14T03:37:56.890Z,4.50
2024-03-14T03:40:24.762Z,4.50
2024-03-14T03:42:55.528Z,4.40
2024-03-14T03:45:22.977Z,4.30
2024-03-14T03:47:51.385Z,4.70
2024-03-14T03:50:19.382Z,4.30
2024-03-14T03:52:47.496Z,4.10
2024-03-14T03:55:20.350Z,3.70
2024-03-14T03:57:47.790Z,4.50
2024-03-14T04:00:35.298Z,4.30
2024-03-14T04:03:10.520Z,4.10
2024-03-14T04:05:44.187Z,4.70
2024-03-14T04:08:11.256Z,3.90
2024-03-14T04:10:38.478Z,4.20
2024-03-14T04:13:13.123Z,4.40
2024-03-14T04:15:40.302Z,4.20
2024-03-14T04:18:07.987Z,3.90
2024-03-14T04:20:39.638Z,4.20
2024-03-14T04:23:07.540Z,4.40
2024-03-14T04:25:35.034Z,4.70
2024-03-14T04:28:03.791Z,4.50
2024-03-14T04:30:31.505Z,3.90
2024-03-14T04:32:58.978Z,4.50
2024-03-14T04:35:26.964Z,4.40
2024-03-14T04:37:54.009Z,3.40
2024-03-14T04:40:21.820Z,3.20
2024-03-14T04:42:53.429Z,3.20
2024-03-14T04:45:23.685Z,3.10
2024-03-14T04:47:51.285Z,3.50
2024-03-14T04:50:21.424Z,3.60
2024-03-14T04:52:50.189Z,3.70
2024-03-14T04:55:18.849Z,3.90
2024-03-14T04:57:46.253Z,4.40
2024-03-14T05:00:23.291Z,5.00
2024-03-14T05:02:52.058Z,6.00
2024-03-14T05:05:19.488Z,5.80
2024-03-14T05:07:46.701Z,5.70
2024-03-14T05:10:24.835Z,7.00
2024-03-14T05:12:51.901Z,6.30
2024-03-14T05:15:19.823Z,6.20
2024-03-14T05:17:47.724Z,6.50
2024-03-14T05:20:15.916Z,7.20
2024-03-14T05:22:44.495Z,6.00
2024-03-14T05:25:13.909Z,5.60
2024-03-14T05:27:51.437Z,5.80
2024-03-14T05:30:25.389Z,5.60
2024-03-14T05:32:52.843Z,5.70
2024-03-14T05:35:20.128Z,6.30
2024-03-14T05:37:47.169Z,5.70
2024-03-14T05:40:14.592Z,5.90
2024-03-14T05:42:42.138Z,5.90
2024-03-14T05:45:10.700Z,5.80
2024-03-14T05:47:41.079Z,5.90
2024-03-14T05:50:11.510Z,6.10
2024-03-14T05:52:42.097Z,4.90
2024-03-14T05:55:12.065Z,5.80
2024-03-14T05:57:40.643Z,6.50
2024-03-14T06:00:11.399Z,5.80
2024-03-14T06:02:42.821Z,5.70
2024-03-14T06:05:09.950Z,4.20
2024-03-14T06:07:37.079Z,4.40
2024-03-14T06:10:05.073Z,4.20
2024-03-14T06:12:33.014Z,4.40
2024-03-14T06:15:00.293Z,4.60
2024-03-14T06:17:28.042Z,5.20
2024-03-14T06:19:55.110Z,6.20
2024-03-14T06:22:22.263Z,6.60
2024-03-14T06:24:49.474Z,11.40
2024-03-14T06:27:16.863Z,14.30
2024-03-14T06:29:44.652Z,10.90
2024-03-14T06:32:12.961Z,6.90
2024-03-14T06:34:40.841Z,5.90
2024-03-14T06:37:08.508Z,5.20
2024-03-14T06:39:38.767Z,5.60
2024-03-14T06:42:07.558Z,8.70
2024-03-14T06:44:35.213Z,12.60
2024-03-14T06:47:02.896Z,9.70
2024-03-14T06:49:30.535Z,11.60
2024-03-14T06:51:58.694Z,8.50
2024-03-14T06:54:26.581Z,7.50
2024-03-14T06:56:54.929Z,6.60
2024-03-14T06:59:22.004Z,5.40
2024-03-14T07:01:49.993Z,5.10
2024-03-14T07:04:17.569Z,4.20
2024-03-14T07:06:44.554Z,4.50
2024-03-14T07:09:15.930Z,6.20
2024-03-14T07:11:45.199Z,8.50
2024-03-14T07:14:12.203Z,10.60
2024-03-14T07:16:43.334Z,9.70
2024-03-14T07:19:10.790Z,9.70
2024-03-14T07:21:39.990Z,8.70
2024-03-14T07:24:07.003Z,10.50
2024-03-14T07:26:38.061Z,12.40
2024-03-14T07:29:06.889Z,6.80
2024-03-14T07:31:33.927Z,6.20
2024-03-14T07:34:01.046Z,6.70
2024-03-14T07:36:31.962Z,7.20
2024-03-14T07:38:59.561Z,7.90
2024-03-14T07:41:31.299Z,7.80
2024-03-14T07:44:10.667Z,5.90
2024-03-14T07:46:46.831Z,6.00
2024-03-14T07:49:15.524Z,5.70
2024-03-14T07:51:43.525Z,4.70
2024-03-14T07:54:15.930Z,4.60
2024-03-14T07:56:44.822Z,4.80
2024-03-14T07:59:12.766Z,5.10
2024-03-14T08:01:39.683Z,4.70
2024-03-14T08:04:07.738Z,5.70
2024-03-14T08:06:40.904Z,5.40
2024-03-14T08:09:09.385Z,4.70
2024-03-14T08:11:36.633Z,4.90
2024-03-14T08:14:07.947Z,5.30
2024-03-14T08:16:37.451Z,6.50
2024-03-14T08:21:40.612Z,6.70
2024-03-14T08:24:13.448Z,5.90
2024-03-14T08:26:41.028Z,6.60
2024-03-14T08:29:08.077Z,6.50
2024-03-14T08:31:35.197Z,5.40
2024-03-14T08:34:04.839Z,5.10
2024-03-14T08:36:34.764Z,5.60
2024-03-14T08:39:01.857Z,4.80
2024-03-14T08:41:29.007Z,5.20
2024-03-14T08:43:56.119Z,5.10
2024-03-14T08:46:24.802Z,4.70
2024-03-14T08:48:51.785Z,4.80
2024-03-14T08:51:18.789Z,4.90
2024-03-14T08:54:04.219Z,4.90
2024-03-14T08:56:31.622Z,5.00
2024-03-14T08:58:58.739Z,4.70
2024-03-14T09:01:26.066Z,4.20
2024-03-14T09:03:53.170Z,4.60
2024-03-14T09:06:20.875Z,5.10
2024-03-14T09:08:48.265Z,5.30
2024-03-14T09:11:20.401Z,5.90
2024-03-14T09:13:47.568Z,4.80
2024-03-14T09:16:14.582Z,5.30
2024-03-14T09:18:41.969Z,5.20
2024-03-14T09:21:10.560Z,4.20
2024-03-14T09:23:40.007Z,4.70
2024-03-14T09:26:08.780Z,4.20
2024-03-14T09:28:36.993Z,4.60
2024-03-14T09:31:04.056Z,6.60
2024-03-14T09:33:32.621Z,6.80
2024-03-14T09:36:01.469Z,5.30
2024-03-14T09:38:29.310Z,4.90
2024-03-14T09:41:02.056Z,5.50
2024-03-14T09:43:33.266Z,5.60
2024-03-14T09:46:01.033Z,4.80
2024-03-14T09:48:29.427Z,4.10
2024-03-14T09:50:57.690Z,4.10
2024-03-14T09:53:28.074Z,3.90
2024-03-14T09:55:55.477Z,4.10
2024-03-14T09:58:23.284Z,4.40
2024-03-14T10:00:50.646Z,3.90
2024-03-14T10:03:20.014Z,3.70
2024-03-14T10:08:17.366Z,3.60
2024-03-14T10:10:44.461Z,4.90
2024-03-14T10:13:11.986Z,5.00
2024-03-14T10:15:39.476Z,5.30
2024-03-14T10:18:10.162Z,4.50
2024-03-14T10:20:38.848Z,5.70
2024-03-14T10:23:05.783Z,4.00
2024-03-14T10:25:36.952Z,3.70
2024-03-14T10:28:10.928Z,4.40
2024-03-14T10:30:53.453Z,4.70
2024-03-14T10:33:22.769Z,4.30
2024-03-14T10:35:49.970Z,3.70
2024-03-14T10:38:21.162Z,4.10
2024-03-14T10:40:48.142Z,4.40
2024-03-14T10:43:15.052Z,4.50
2024-03-14T10:45:43.817Z,4.70
2024-03-14T10:48:11.103Z,5.00
2024-03-14T10:50:38.531Z,4.30
2024-03-14T10:53:06.918Z,4.60
2024-03-14T10:55:35.256Z,4.10
2024-03-14T10:58:05.188Z,4.30
2024-03-14T11:00:34.744Z,7.70
2024-03-14T11:03:01.861Z,5.30
2024-03-14T11:05:28.985Z,4.60
2024-03-14T11:08:01.777Z,4.80
2024-03-14T11:10:30.408Z,4.50
2024-03-14T11:13:07.727Z,4.50
2024-03-14T11:15:38.088Z,4.40
2024-03-14T11:18:18.436Z,4.00
2024-03-14T11:20:48.321Z,4.10
2024-03-14T11:23:15.926Z,8.10
2024-03-14T11:25:44.997Z,5.00
2024-03-14T11:30:40.797Z,4.00
2024-03-14T11:33:08.245Z,4.00
2024-03-14T11:35:40.896Z,4.20
2024-03-14T11:38:16.988Z,5.30
2024-03-14T11:40:43.998Z,4.50
2024-03-14T11:43:26.200Z,4.60
2024-03-14T11:45:56.559Z,4.70
2024-03-14T11:48:24.752Z,4.70
2024-03-14T11:50:55.234Z,4.30
2024-03-14T11:53:22.483Z,4.10
2024-03-14T11:55:55.601Z,4.00
2024-03-14T11:58:30.155Z,3.70
2024-03-14T12:00:57.779Z,4.40
2024-03-14T12:03:24.999Z,4.20
2024-03-14T12:05:53.351Z,4.10
2024-03-14T12:08:20.381Z,5.50
2024-03-14T12:10:57.052Z,6.70
2024-03-14T12:13:28.297Z,7.30
2024-03-14T12:16:05.505Z,5.10
2024-03-14T12:18:33.705Z,4.60
2024-03-14T12:21:03.217Z,4.60
2024-03-14T12:23:31.057Z,4.00
2024-03-14T12:26:08.397Z,4.10
2024-03-14T12:28:35.742Z,4.20
2024-03-14T12:31:03.236Z,4.20
2024-03-14T12:33:31.813Z,4.90
2024-03-14T12:35:59.769Z,4.20
2024-03-14T12:38:29.237Z,4.30
2024-03-14T12:40:59.623Z,4.50
2024-03-14T12:43:32.651Z,4.70
2024-03-14T12:46:02.467Z,4.00
2024-03-14T12:48:29.817Z,4.10
2024-03-14T12:51:14.256Z,4.60
2024-03-14T12:53:41.311Z,3.80
2024-03-14T12:56:08.312Z,4.50
2024-03-14T12:58:35.469Z,4.90
2024-03-14T13:01:02.608Z,4.40
2024-03-14T13:03:29.922Z,4.20
2024-03-14T13:05:57.777Z,4.10
2024-03-14T13:08:30.671Z,4.30
2024-03-14T13:11:13.092Z,4.70
2024-03-14T13:13:40.206Z,4.40
2024-03-14T13:16:22.503Z,4.50
2024-03-14T13:18:57.237Z,4.30
2024-03-14T13:21:27.313Z,4.40
2024-03-14T13:23:54.655Z,4.50
2024-03-14T13:26:24.774Z,4.30
2024-03-14T13:28:55.266Z,4.50
2024-03-14T13:31:23.077Z,5.00
2024-03-14T13:33:50.115Z,5.20
2024-03-14T13:36:17.851Z,4.50
2024-03-14T13:38:45.232Z,4.90
2024-03-14T13:41:14.209Z,5.70
2024-03-14T13:43:41.316Z,5.30
2024-03-14T13:46:09.651Z,5.30
2024-03-14T13:48:37.793Z,4.90
2024-03-14T13:51:09.110Z,5.00
2024-03-14T13:53:36.333Z,4.90
2024-03-14T13:56:03.273Z,5.20
2024-03-14T13:58:37.549Z,5.30
2024-03-14T14:01:20.642Z,5.80
2024-03-14T14:03:48.445Z,5.60
2024-03-14T14:06:18.469Z,7.30
2024-03-14T14:08:46.278Z,5.40
2024-03-14T14:11:16.377Z,8.20
2024-03-14T14:13:47.013Z,6.70
2024-03-14T14:16:14.578Z,6.50
2024-03-14T14:18:41.913Z,5.50
2024-03-14T14:21:08.855Z,5.00
2024-03-14T14:23:36.912Z,7.30
2024-03-14T14:26:09.428Z,6.50
2024-03-14T14:28:37.201Z,5.90
2024-03-14T14:31:04.402Z,8.30
2024-03-14T14:33:33.520Z,8.90
2024-03-14T14:36:02.470Z,9.90
2024-03-14T14:38:31.079Z,6.70
2024-03-14T14:40:58.243Z,4.90
2024-03-14T14:43:26.831Z,4.30
2024-03-14T14:45:56.926Z,4.70
2024-03-14T14:48:24.521Z,5.50
2024-03-14T14:50:51.471Z,4.30
2024-03-14T14:53:18.466Z,5.00
2024-03-14T14:55:45.441Z,4.20
2024-03-14T14:58:14.122Z,5.60
2024-03-14T15:00:42.091Z,5.40
2024-03-14T15:03:09.302Z,5.40
2024-03-14T15:05:38.392Z,4.70
2024-03-14T15:08:06.185Z,6.60
2024-03-14T15:10:33.381Z,10.80
2024-03-14T15:13:03.910Z,12.10
2024-03-14T15:15:32.625Z,6.70
2024-03-14T15:18:00.944Z,5.50
2024-03-14T15:20:28.236Z,5.50
2024-03-14T15:22:55.367Z,8.80
2024-03-14T15:25:23.241Z,6.50
2024-03-14T15:27:50.982Z,5.70
2024-03-14T15:30:19.680Z,5.60
2024-03-14T15:32:47.848Z,5.60
2024-03-14T15:35:16.621Z,6.70
2024-03-14T15:37:44.512Z,6.10
2024-03-14T15:40:12.933Z,5.50
2024-03-14T15:42:40.231Z,5.50
2024-03-14T15:45:10.391Z,5.70
2024-03-14T15:47:38.186Z,5.90
2024-03-14T15:50:06.284Z,5.70
2024-03-14T15:52:33.787Z,6.60
2024-03-14T15:55:01.109Z,6.50
2024-03-14T15:57:28.385Z,8.80
2024-03-14T15:59:55.281Z,8.30
2024-03-14T16:02:24.622Z,9.50
2024-03-14T16:07:18.411Z,9.50
2024-03-14T16:09:45.652Z,10.40
2024-03-14T16:12:13.109Z,10.40
2024-03-14T16:14:41.324Z,8.80
2024-03-14T16:17:10.311Z,8.80
2024-03-14T16:19:37.318Z,7.70
2024-03-14T16:22:06.240Z,8.90
2024-03-14T16:24:38.605Z,9.10
2024-03-14T16:27:06.268Z,8.50
2024-03-14T16:29:33.255Z,9.80
2024-03-14T16:32:02.630Z,11.90
2024-03-14T16:34:33.945Z,12.40
2024-03-14T16:37:00.868Z,13.20
2024-03-14T16:39:28.208Z,13.50
2024-03-14T16:41:55.236Z,14.60
2024-03-14T16:44:22.081Z,14.20
2024-03-14T16:46:49.878Z,16.70
2024-03-14T16:49:17.531Z,15.20
2024-03-14T16:51:44.540Z,14.90
2024-03-14T16:54:17.368Z,17.10
2024-03-14T16:56:44.337Z,20.60
2024-03-14T16:59:11.999Z,24.70
2024-03-14T17:01:44.441Z,25.90
2024-03-14T17:04:11.741Z,24.60
2024-03-14T17:06:38.774Z,24.00
2024-03-14T17:09:09.166Z,19.40
2024-03-14T17:11:39.543Z,19.40
2024-03-14T17:14:06.579Z,17.60
2024-03-14T17:16:33.673Z,15.20
2024-03-14T17:19:02.717Z,14.80
2024-03-14T17:21:30.448Z,14.20
2024-03-14T17:23:58.100Z,14.50
2024-03-14T17:26:25.398Z,15.30
2024-03-14T17:28:52.370Z,15.90
2024-03-14T17:31:19.932Z,14.90
2024-03-14T17:33:48.435Z,16.20
2024-03-14T17:36:16.818Z,14.00
2024-03-14T17:38:45.102Z,13.00
2024-03-14T17:41:12.447Z,11.80
2024-03-14T17:43:42.286Z,11.90
2024-03-14T17:46:09.589Z,12.10
2024-03-14T17:48:39.664Z,12.20
2024-03-14T17:51:06.988Z,12.20
2024-03-14T17:53:34.239Z,12.30
2024-03-14T17:56:01.410Z,12.30
2024-03-14T17:58:28.405Z,11.00
2024-03-14T18:00:55.629Z,11.60
2024-03-14T18:03:23.302Z,11.20
2024-03-14T18:05:51.323Z,10.70
2024-03-14T18:08:19.248Z,10.00
2024-03-14T18:10:50.688Z,9.60
2024-03-14T18:13:17.732Z,10.70
2024-03-14T18:15:45.009Z,9.70
2024-03-14T18:18:13.728Z,9.20
2024-03-14T18:20:41.297Z,9.70
2024-03-14T18:23:08.551Z,9.70
2024-03-14T18:25:39.665Z,9.70
2024-03-14T18:28:07.372Z,8.30
2024-03-14T18:30:35.036Z,9.40
2024-03-14T18:33:03.970Z,9.10
2024-03-14T18:35:31.408Z,8.20
2024-03-14T18:37:58.494Z,8.00
2024-03-14T18:40:31.451Z,8.40
2024-03-14T18:43:00.551Z,7.70
2024-03-14T18:45:28.636Z,8.00
2024-03-14T18:47:58.192Z,8.10
2024-03-14T18:50:26.223Z,7.30
2024-03-14T18:52:53.252Z,8.00
2024-03-14T18:55:22.010Z,7.00
2024-03-14T18:57:50.002Z,7.80
2024-03-14T19:00:20.714Z,7.00
2024-03-14T19:02:49.563Z,7.70
2024-03-14T19:05:17.297Z,7.20
2024-03-14T19:07:44.322Z,7.40
2024-03-14T19:10:11.457Z,6.40
2024-03-14T19:12:38.633Z,7.10
2024-03-14T19:15:07.021Z,7.10
2024-03-14T19:17:34.808Z,5.90
2024-03-14T19:20:03.974Z,6.30
2024-03-14T19:22:33.359Z,7.10
2024-03-14T19:25:01.877Z,6.90
2024-03-14T19:27:28.839Z,6.10
2024-03-14T19:29:55.803Z,6.90
2024-03-14T19:32:23.084Z,6.80
2024-03-14T19:34:51.075Z,6.40
2024-03-14T19:37:18.133Z,6.30
2024-03-14T19:39:45.622Z,6.20
2024-03-14T19:42:13.189Z,6.30
2024-03-14T19:44:40.319Z,6.80
2024-03-14T19:47:09.307Z,5.70
2024-03-14T19:49:36.398Z,6.50
2024-03-14T19:52:04.101Z,6.20
2024-03-14T19:54:31.304Z,6.00
2024-03-14T19:56:59.950Z,6.20
2024-03-14T19:59:27.949Z,6.30
2024-03-14T20:01:55.320Z,5.60
2024-03-14T20:04:22.353Z,5.80
2024-03-14T20:06:49.390Z,6.00
2024-03-14T20:09:16.513Z,6.60
2024-03-14T20:11:43.643Z,6.60
2024-03-14T20:14:12.242Z,7.00
2024-03-14T20:16:39.879Z,7.40
2024-03-14T20:19:07.182Z,7.10
2024-03-14T20:21:34.420Z,7.40
2024-03-14T20:24:01.677Z,6.40
2024-03-14T20:26:28.722Z,6.30
2024-03-14T20:28:55.777Z,6.70
2024-03-14T20:31:24.357Z,6.20
2024-03-14T20:33:51.799Z,9.00
2024-03-14T20:36:19.886Z,11.40
2024-03-14T20:38:48.837Z,13.00
2024-03-14T20:41:23.393Z,11.40
2024-03-14T20:43:52.796Z,10.60
2024-03-14T20:46:20.038Z,11.50
2024-03-14T20:48:51.070Z,10.40
2024-03-14T20:51:19.299Z,9.20
2024-03-14T20:53:47.098Z,7.60
2024-03-14T20:56:30.752Z,8.50
2024-03-14T20:58:58.485Z,8.00
2024-03-14T21:01:27.233Z,8.40
2024-03-14T21:03:54.316Z,8.50
2024-03-14T21:06:23.549Z,7.60
2024-03-14T21:08:57.043Z,7.00
2024-03-14T21:11:24.431Z,8.40
2024-03-14T21:13:51.416Z,7.30
2024-03-14T21:16:21.331Z,6.90
2024-03-14T21:19:25.863Z,6.60
2024-03-14T21:21:52.877Z,7.10
2024-03-14T21:24:20.252Z,7.10
2024-03-14T21:26:47.688Z,7.20
2024-03-14T21:29:17.044Z,6.90
2024-03-14T21:31:44.348Z,6.60
2024-03-14T21:34:14.223Z,7.60
2024-03-14T21:36:41.490Z,8.20
2024-03-14T21:39:11.168Z,9.80
2024-03-14T21:41:41.091Z,12.60
2024-03-14T21:44:11.038Z,14.00
2024-03-14T21:46:40.952Z,15.30
2024-03-14T21:49:08.002Z,16.90
2024-03-14T21:51:35.033Z,16.20
2024-03-14T21:54:02.118Z,16.00
2024-03-14T21:56:29.280Z,16.60
2024-03-14T21:58:57.662Z,16.50
2024-03-14T22:01:24.589Z,15.20
2024-03-14T22:03:52.551Z,15.60
2024-03-14T22:06:20.522Z,16.70
2024-03-14T22:08:47.584Z,15.30
2024-03-14T22:11:14.733Z,19.40
2024-03-14T22:13:42.796Z,15.90
2024-03-14T22:16:11.725Z,14.60
2024-03-14T22:18:38.947Z,14.90
2024-03-14T22:21:08.006Z,14.40
2024-03-14T22:23:35.528Z,15.90
2024-03-14T22:26:02.560Z,14.80
2024-03-14T22:28:30.890Z,14.30
2024-03-14T22:31:07.987Z,15.10
2024-03-14T22:33:40.842Z,16.60
2024-03-14T22:36:07.941Z,14.60
2024-03-14T22:38:34.970Z,14.10
2024-03-14T22:41:03.514Z,13.30
2024-03-14T22:43:31.740Z,14.50
2024-03-14T22:45:58.787Z,11.90
2024-03-14T22:48:26.685Z,10.60
2024-03-14T22:53:06.361Z,11.60
2024-03-14T22:55:33.324Z,11.10
2024-03-14T22:58:00.085Z,8.40
2024-03-14T23:00:47.053Z,7.30
2024-03-14T23:03:17.533Z,9.30
2024-03-14T23:05:47.538Z,9.50
2024-03-14T23:08:17.663Z,9.80
2024-03-14T23:10:47.252Z,10.40
2024-03-14T23:13:23.332Z,8.90
2024-03-14T23:15:51.841Z,7.90
2024-03-14T23:18:19.282Z,7.80
2024-03-14T23:20:46.653Z,8.00
2024-03-14T23:23:13.838Z,7.70
2024-03-14T23:25:42.495Z,6.90
2024-03-14T23:28:12.289Z,6.40
2024-03-14T23:30:41.590Z,6.70
2024-03-14T23:33:08.956Z,6.70
2024-03-14T23:35:37.309Z,7.40
2024-03-14T23:38:04.924Z,7.00
2024-03-14T23:40:32.267Z,6.60
2024-03-14T23:42:59.204Z,6.90
2024-03-14T23:45:25.982Z,6.30
2024-03-14T23:47:53.033Z,6.20
2024-03-14T23:50:23.187Z,6.30
2024-03-14T23:52:50.980Z,6.80
2024-03-14T23:55:20.554Z,7.00
2024-03-14T23:57:47.687Z,7.00
